Time;durP1;ratioP1;P1;durP2;ratioP2;P2;SDS_P1;SDS_P2;PMS_P1;PMS_P2;Temp;Humidity;BMP_temperature;BMP_pressure;BME280_temperature;BME280_humidity;BME280_pressure;Samples;Min_cycle;Max_cycle;Signal;HPM_P1;HPM_P2
2023/07/28 00:01:33;;;;;;;8.10;4.85;;;16.90;99.90;;;;;;5027032;28;20091;-51
2023/07/28 00:04:01;;;;;;;6.40;3.78;;;16.90;99.90;;;;;;5025855;28;20481;-54
2023/07/28 00:06:28;;;;;;;7.50;4.32;;;16.90;99.90;;;;;;5027044;28;20071;-52
2023/07/28 00:08:57;;;;;;;6.40;3.95;;;16.90;99.90;;;;;;5026118;28;20049;-53
2023/07/28 00:11:24;;;;;;;7.97;4.63;;;16.90;99.90;;;;;;5026793;28;20473;-50
2023/07/28 00:13:51;;;;;;;9.68;4.80;;;16.80;99.90;;;;;;5027288;28;20083;-52
2023/07/28 00:16:20;;;;;;;8.38;4.60;;;16.80;99.90;;;;;;5025075;28;20286;-54
2023/07/28 00:18:47;;;;;;;8.05;4.55;;;16.70;99.90;;;;;;5024948;28;20048;-53
2023/07/28 00:21:14;;;;;;;10.15;4.82;;;16.70;99.90;;;;;;5025438;28;20037;-46
2023/07/28 00:23:42;;;;;;;7.30;4.25;;;16.70;99.90;;;;;;5026558;28;20046;-52
2023/07/28 00:26:10;;;;;;;7.07;4.35;;;16.70;99.90;;;;;;5024527;28;20057;-52
2023/07/28 00:28:37;;;;;;;6.85;4.78;;;16.70;99.90;;;;;;5025167;28;20573;-49
2023/07/28 00:31:04;;;;;;;7.05;4.55;;;16.70;99.90;;;;;;5026148;28;20049;-52
2023/07/28 00:33:32;;;;;;;7.88;4.90;;;16.70;99.90;;;;;;5024150;28;20099;-53
2023/07/28 00:35:59;;;;;;;10.43;5.10;;;16.80;99.90;;;;;;5030780;28;20116;-44
2023/07/28 00:38:26;;;;;;;7.03;4.63;;;16.80;99.90;;;;;;5028203;28;20155;-48
2023/07/28 00:40:56;;;;;;;7.70;4.38;;;16.70;99.90;;;;;;5028560;28;20124;-48
2023/07/28 00:43:24;;;;;;;7.32;5.15;;;16.70;99.90;;;;;;5011859;28;20430;-47
2023/07/28 00:45:53;;;;;;;6.78;4.55;;;16.70;99.90;;;;;;5030877;28;20092;-53
2023/07/28 00:48:20;;;;;;;7.53;4.65;;;16.70;99.90;;;;;;5026909;28;20053;-51
2023/07/28 00:50:49;;;;;;;8.80;4.85;;;16.70;99.90;;;;;;5027133;28;20050;-46
2023/07/28 00:53:16;;;;;;;7.80;4.57;;;16.70;99.90;;;;;;5029542;28;20048;-53
2023/07/28 00:55:43;;;;;;;8.73;5.22;;;16.70;99.90;;;;;;5030602;28;20525;-47
2023/07/28 00:58:11;;;;;;;8.20;5.05;;;16.70;99.90;;;;;;5028265;28;20526;-49
2023/07/28 01:00:38;;;;;;;7.32;4.18;;;16.70;99.90;;;;;;5024084;28;20065;-51
2023/07/28 01:03:07;;;;;;;8.27;4.45;;;16.70;99.90;;;;;;5028018;28;20459;-59
2023/07/28 01:06:00;;;;;;;7.80;4.80;;;16.70;99.90;;;;;;5027058;28;20407;-50
2023/07/28 01:08:49;;;;;;;6.82;4.72;;;16.70;99.90;;;;;;5025990;28;20073;-50
2023/07/28 01:11:16;;;;;;;9.63;5.15;;;16.70;99.90;;;;;;5023121;28;20413;-56
2023/07/28 01:13:44;;;;;;;8.13;4.60;;;16.70;99.90;;;;;;5024639;28;20117;-54
2023/07/28 01:16:11;;;;;;;6.18;4.00;;;16.70;99.90;;;;;;5028755;28;20226;-50
2023/07/28 01:18:39;;;;;;;9.18;4.72;;;16.70;99.90;;;;;;5026215;28;20511;-61
2023/07/28 01:21:14;;;;;;;7.10;4.97;;;16.70;99.90;;;;;;5042068;28;20046;-55
2023/07/28 01:23:54;;;;;;;8.23;4.68;;;16.70;99.90;;;;;;5025191;28;20490;-54
2023/07/28 01:26:48;;;;;;;7.90;5.00;;;16.70;99.90;;;;;;5029307;28;20053;-51
2023/07/28 01:29:16;;;;;;;7.53;4.85;;;16.70;99.90;;;;;;5026539;28;20050;-49
2023/07/28 01:31:47;;;;;;;9.32;4.60;;;16.60;99.90;;;;;;5028293;28;20137;-56
2023/07/28 01:34:14;;;;;;;9.13;5.15;;;16.60;99.90;;;;;;5028818;28;20203;-49
2023/07/28 01:36:42;;;;;;;9.38;5.47;;;16.70;99.90;;;;;;5028418;28;20131;-49
2023/07/28 01:39:09;;;;;;;8.55;4.90;;;16.60;99.90;;;;;;5029867;28;20528;-47
2023/07/28 01:41:37;;;;;;;10.10;5.45;;;16.60;99.90;;;;;;5028745;28;20050;-51
2023/07/28 01:44:04;;;;;;;8.98;5.60;;;16.70;99.90;;;;;;5027715;28;20042;-50
2023/07/28 01:46:31;;;;;;;8.55;5.75;;;16.70;99.90;;;;;;5029201;28;20036;-53
2023/07/28 01:48:59;;;;;;;11.48;6.13;;;16.70;99.90;;;;;;5026978;28;20553;-50
2023/07/28 01:51:27;;;;;;;8.45;5.53;;;16.70;99.90;;;;;;5011456;28;21683;-45
2023/07/28 01:53:54;;;;;;;8.40;5.32;;;16.70;99.90;;;;;;5026891;28;20545;-51
2023/07/28 01:56:21;;;;;;;8.25;5.30;;;16.70;99.90;;;;;;5024820;28;20140;-47
2023/07/28 01:58:49;;;;;;;8.05;5.47;;;16.70;99.90;;;;;;5026373;28;20041;-57
2023/07/28 02:01:16;;;;;;;7.72;5.18;;;16.70;99.90;;;;;;5040755;28;20099;-54
2023/07/28 02:03:44;;;;;;;8.73;5.85;;;16.70;99.90;;;;;;5027356;28;20100;-49
2023/07/28 02:06:11;;;;;;;8.00;5.03;;;16.60;99.90;;;;;;5025647;28;20099;-47
2023/07/28 02:08:38;;;;;;;7.70;5.70;;;16.60;99.90;;;;;;5027197;28;20053;-52
2023/07/28 02:11:06;;;;;;;9.15;5.68;;;16.70;99.90;;;;;;5028108;28;20046;-47
2023/07/28 02:13:34;;;;;;;8.63;5.50;;;16.60;99.90;;;;;;5024835;28;20132;-48
2023/07/28 02:16:03;;;;;;;9.50;5.65;;;16.60;99.90;;;;;;5009576;28;20045;-55
2023/07/28 02:18:31;;;;;;;9.07;5.93;;;16.70;99.90;;;;;;5026386;28;20164;-56
2023/07/28 02:20:58;;;;;;;10.23;5.55;;;16.70;99.90;;;;;;5026378;28;20141;-51
2023/07/28 02:23:26;;;;;;;8.45;5.50;;;16.60;99.90;;;;;;5027331;28;20533;-50
2023/07/28 02:25:53;;;;;;;8.73;5.80;;;16.60;99.90;;;;;;5026945;28;20046;-55
2023/07/28 02:28:20;;;;;;;8.77;5.53;;;16.60;99.90;;;;;;5027339;28;20052;-50
2023/07/28 02:30:48;;;;;;;7.78;5.50;;;16.60;99.90;;;;;;5026479;28;20056;-48
2023/07/28 02:33:16;;;;;;;10.57;6.43;;;16.60;99.90;;;;;;5027316;28;20514;-51
2023/07/28 02:35:43;;;;;;;10.00;6.22;;;16.60;99.90;;;;;;5025937;28;20169;-55
2023/07/28 02:38:10;;;;;;;7.68;5.57;;;16.60;99.90;;;;;;5027208;28;20083;-51
2023/07/28 02:40:38;;;;;;;8.98;5.57;;;16.60;99.90;;;;;;5025976;28;20049;-50
2023/07/28 02:43:05;;;;;;;8.75;6.20;;;16.60;99.90;;;;;;5026481;28;20427;-52
2023/07/28 02:45:33;;;;;;;11.27;6.10;;;16.60;99.90;;;;;;5020381;28;20453;-51
2023/07/28 02:48:00;;;;;;;8.52;6.07;;;16.60;99.90;;;;;;5027720;28;20479;-51
2023/07/28 02:50:27;;;;;;;12.20;6.10;;;16.60;99.90;;;;;;5025926;28;20157;-50
2023/07/28 02:52:55;;;;;;;9.50;5.78;;;16.60;99.90;;;;;;5027279;28;20068;-48
2023/07/28 02:55:22;;;;;;;8.73;5.60;;;16.60;99.90;;;;;;5025470;28;20051;-53
2023/07/28 02:57:49;;;;;;;8.45;6.28;;;16.60;99.90;;;;;;5025968;28;20110;-53
2023/07/28 03:00:17;;;;;;;8.68;6.32;;;16.60;99.90;;;;;;5024141;28;20128;-49
2023/07/28 03:02:44;;;;;;;10.75;5.90;;;16.60;99.90;;;;;;5026922;28;20536;-52
2023/07/28 03:05:12;;;;;;;10.80;6.32;;;16.60;99.90;;;;;;5025090;28;20045;-51
2023/07/28 03:07:54;;;;;;;10.57;6.28;;;16.60;99.90;;;;;;5026320;28;20080;-47
2023/07/28 03:10:21;;;;;;;11.23;5.93;;;16.60;99.90;;;;;;5024863;28;20068;-48
2023/07/28 03:12:51;;;;;;;10.15;6.68;;;16.60;99.90;;;;;;5025102;28;20045;-54
2023/07/28 03:15:18;;;;;;;8.88;6.47;;;16.50;99.90;;;;;;5024649;28;20198;-51
2023/07/28 03:17:45;;;;;;;10.25;6.30;;;16.60;99.90;;;;;;5026058;28;20496;-48
2023/07/28 03:20:13;;;;;;;8.52;6.10;;;16.60;99.90;;;;;;5026522;28;20457;-54
2023/07/28 03:22:40;;;;;;;8.77;6.00;;;16.60;99.90;;;;;;5027089;28;20135;-49
2023/07/28 03:25:08;;;;;;;9.55;6.10;;;16.60;99.90;;;;;;5025960;28;20068;-50
2023/07/28 03:27:35;;;;;;;10.00;6.32;;;16.60;99.90;;;;;;5025249;28;20061;-51
2023/07/28 03:30:06;;;;;;;8.10;6.05;;;16.60;99.90;;;;;;5027197;28;20394;-50
2023/07/28 03:32:34;;;;;;;9.05;6.13;;;16.60;99.90;;;;;;5038864;28;20107;-48
2023/07/28 03:35:01;;;;;;;10.32;6.03;;;16.60;99.90;;;;;;5026529;28;20573;-50
2023/07/28 03:37:31;;;;;;;9.98;6.15;;;16.60;99.90;;;;;;5024689;28;20067;-49
2023/07/28 03:39:58;;;;;;;8.45;5.53;;;16.70;99.90;;;;;;5023940;28;20046;-50
2023/07/28 03:42:35;;;;;;;10.43;5.95;;;16.70;99.90;;;;;;5021932;28;20393;-54
2023/07/28 03:45:03;;;;;;;10.50;6.65;;;16.70;99.90;;;;;;5025322;28;20433;-54
2023/07/28 03:47:30;;;;;;;9.02;5.97;;;16.70;99.90;;;;;;5026582;28;20169;-52
2023/07/28 03:49:58;;;;;;;8.35;5.38;;;16.70;99.90;;;;;;5010185;28;20144;-51
2023/07/28 03:52:25;;;;;;;10.75;6.82;;;16.70;99.90;;;;;;5024523;28;20380;-47
2023/07/28 03:54:52;;;;;;;9.98;6.50;;;16.80;99.90;;;;;;5026058;28;20099;-47
2023/07/28 03:57:20;;;;;;;10.18;5.50;;;16.70;99.90;;;;;;5027478;28;20120;-57
2023/07/28 03:59:47;;;;;;;10.68;6.70;;;16.70;99.90;;;;;;5027967;28;20091;-53
2023/07/28 04:02:17;;;;;;;9.95;6.55;;;16.70;99.90;;;;;;5024372;28;20052;-49
2023/07/28 04:04:44;;;;;;;10.35;5.90;;;16.80;99.90;;;;;;5025960;28;20103;-55
2023/07/28 04:07:11;;;;;;;12.50;6.10;;;16.80;99.90;;;;;;5026326;28;20057;-54
2023/07/28 04:09:38;;;;;;;8.68;6.22;;;16.80;99.90;;;;;;5027618;28;20045;-51
2023/07/28 04:12:13;;;;;;;9.90;6.30;;;16.80;99.90;;;;;;5032835;28;20053;-48
2023/07/28 04:14:40;;;;;;;11.15;6.50;;;16.80;99.90;;;;;;5044111;28;20434;-52
2023/07/28 04:17:08;;;;;;;9.75;6.25;;;16.80;99.90;;;;;;5030488;28;20111;-51
2023/07/28 04:19:37;;;;;;;9.65;7.03;;;16.80;99.90;;;;;;5027235;28;20382;-54
2023/07/28 04:22:05;;;;;;;10.32;6.85;;;16.80;99.90;;;;;;5030440;28;20505;-54
2023/07/28 04:24:34;;;;;;;10.52;6.38;;;16.80;99.90;;;;;;5025328;28;20037;-49
2023/07/28 04:27:01;;;;;;;10.68;6.65;;;16.90;99.90;;;;;;5028056;28;20050;-47
2023/07/28 04:29:29;;;;;;;10.07;6.80;;;17.00;99.90;;;;;;5027682;28;20057;-51
2023/07/28 04:31:58;;;;;;;11.38;6.82;;;17.00;99.90;;;;;;5028429;28;20105;-51
2023/07/28 04:34:35;;;;;;;12.02;6.35;;;17.00;99.90;;;;;;5029699;28;20112;-49
2023/07/28 04:37:08;;;;;;;9.27;6.65;;;17.10;99.90;;;;;;5029535;28;20056;-49
2023/07/28 04:39:47;;;;;;;11.50;6.45;;;17.10;99.90;;;;;;5027539;28;20041;-54
2023/07/28 04:42:17;;;;;;;10.93;6.15;;;17.10;99.90;;;;;;5028256;28;20113;-50
2023/07/28 04:44:47;;;;;;;9.50;6.63;;;17.10;99.90;;;;;;5029804;28;20750;-50
2023/07/28 04:47:16;;;;;;;11.45;6.93;;;17.10;99.90;;;;;;5030113;28;20037;-46
2023/07/28 04:49:43;;;;;;;10.43;6.45;;;17.10;99.90;;;;;;5030019;28;20057;-49
2023/07/28 04:52:11;;;;;;;8.88;5.82;;;17.10;99.90;;;;;;5024440;28;20512;-50
2023/07/28 04:55:01;;;;;;;8.63;6.22;;;17.10;99.90;;;;;;5029522;28;20529;-54
2023/07/28 04:57:29;;;;;;;12.38;6.68;;;17.10;99.90;;;;;;5039350;28;20396;-50
2023/07/28 04:59:56;;;;;;;8.60;6.70;;;17.10;99.90;;;;;;5026530;28;20069;-52
2023/07/28 05:02:23;;;;;;;9.15;6.00;;;17.20;99.90;;;;;;5029501;28;20045;-46
2023/07/28 05:04:52;;;;;;;10.25;6.75;;;17.20;99.90;;;;;;5028083;28;20406;-51
2023/07/28 05:07:20;;;;;;;10.68;6.57;;;17.20;99.90;;;;;;5025204;28;20042;-48
2023/07/28 05:09:47;;;;;;;10.05;6.85;;;17.30;99.90;;;;;;5026096;28;20060;-48
2023/07/28 05:12:15;;;;;;;8.50;6.65;;;17.30;99.90;;;;;;5022424;28;20076;-49
2023/07/28 05:14:45;;;;;;;11.20;7.60;;;17.40;99.90;;;;;;5026317;28;20095;-48
2023/07/28 05:17:15;;;;;;;11.63;7.75;;;17.40;99.90;;;;;;5027017;28;20050;-49
2023/07/28 05:19:56;;;;;;;11.93;8.48;;;17.40;99.90;;;;;;5025659;28;20402;-50
2023/07/28 05:22:34;;;;;;;12.63;8.07;;;17.40;99.90;;;;;;5022956;28;20073;-50
2023/07/28 05:25:02;;;;;;;11.50;7.78;;;17.40;99.90;;;;;;5028186;28;20108;-47
2023/07/28 05:27:32;;;;;;;11.32;7.40;;;17.50;99.90;;;;;;5022962;28;20042;-54
2023/07/28 05:30:00;;;;;;;10.10;7.40;;;17.50;99.90;;;;;;5024077;28;20522;-47
2023/07/28 05:32:27;;;;;;;9.63;7.22;;;17.50;99.90;;;;;;5028166;28;20128;-48
2023/07/28 05:35:07;;;;;;;10.27;7.03;;;17.50;99.90;;;;;;5022318;28;20825;-52
2023/07/28 05:37:35;;;;;;;11.30;6.57;;;17.50;99.90;;;;;;5026705;28;20047;-53
2023/07/28 05:40:03;;;;;;;13.68;7.28;;;17.60;99.90;;;;;;5025373;28;20526;-52
2023/07/28 05:42:32;;;;;;;9.40;6.65;;;17.60;99.90;;;;;;5019846;28;20134;-52
2023/07/28 05:45:00;;;;;;;10.27;6.53;;;17.60;99.90;;;;;;5023117;28;20573;-53
2023/07/28 05:47:29;;;;;;;10.30;6.65;;;17.60;99.90;;;;;;5021002;28;20096;-53
2023/07/28 05:50:05;;;;;;;8.73;5.95;;;17.70;99.90;;;;;;5025379;28;20605;-52
2023/07/28 05:52:32;;;;;;;10.10;6.95;;;17.70;99.90;;;;;;5019618;28;20164;-51
2023/07/28 05:55:00;;;;;;;9.68;6.47;;;17.70;99.90;;;;;;5023409;28;20099;-52
2023/07/28 05:57:28;;;;;;;10.15;6.53;;;17.70;99.90;;;;;;5018619;28;20061;-53
2023/07/28 05:59:56;;;;;;;9.20;6.28;;;17.70;99.90;;;;;;5020930;28;20081;-53
2023/07/28 06:02:23;;;;;;;10.65;7.30;;;17.70;99.90;;;;;;5015374;28;20033;-53
2023/07/28 06:04:54;;;;;;;9.35;6.60;;;17.70;99.90;;;;;;5019724;28;20049;-56
2023/07/28 06:07:22;;;;;;;10.85;6.75;;;17.70;99.90;;;;;;5020187;28;20072;-50
2023/07/28 06:09:49;;;;;;;13.60;7.13;;;17.80;99.90;;;;;;5020928;28;20049;-54
2023/07/28 06:12:17;;;;;;;10.70;6.78;;;17.80;99.90;;;;;;5021832;28;20053;-51
2023/07/28 06:14:47;;;;;;;13.15;8.50;;;17.90;99.90;;;;;;5023168;28;20422;-53
2023/07/28 06:17:14;;;;;;;12.48;7.55;;;17.90;99.90;;;;;;5022499;28;20115;-55
2023/07/28 06:19:42;;;;;;;11.82;7.32;;;17.90;99.90;;;;;;5022656;28;20038;-52
2023/07/28 06:22:09;;;;;;;10.68;7.45;;;18.00;99.90;;;;;;5025071;28;20041;-54
2023/07/28 06:24:43;;;;;;;10.70;7.20;;;18.00;99.90;;;;;;5021054;28;20121;-54
2023/07/28 06:27:10;;;;;;;10.65;7.38;;;18.10;99.90;;;;;;5023567;28;20154;-55
2023/07/28 06:29:39;;;;;;;8.52;5.63;;;18.20;99.90;;;;;;5022469;28;20046;-55
2023/07/28 06:32:07;;;;;;;10.75;6.30;;;18.40;99.90;;;;;;5025774;28;20053;-54
2023/07/28 06:34:35;;;;;;;9.68;6.25;;;18.40;99.90;;;;;;5017401;28;20131;-55
2023/07/28 06:37:02;;;;;;;10.15;6.50;;;18.40;99.90;;;;;;5022758;28;20057;-54
2023/07/28 06:39:30;;;;;;;11.45;6.18;;;18.40;99.90;;;;;;5024993;28;20120;-52
2023/07/28 06:41:57;;;;;;;7.90;6.13;;;18.40;99.90;;;;;;5021284;28;20057;-55
2023/07/28 06:44:26;;;;;;;8.05;6.28;;;18.30;99.90;;;;;;5019231;28;20056;-53
2023/07/28 06:46:54;;;;;;;9.60;6.28;;;18.30;99.90;;;;;;5019752;28;20501;-53
2023/07/28 06:49:21;;;;;;;9.68;6.22;;;18.30;99.90;;;;;;5020150;28;20057;-54
2023/07/28 06:51:49;;;;;;;8.27;5.90;;;18.20;99.90;;;;;;5020926;28;20148;-53
2023/07/28 06:54:18;;;;;;;11.30;6.57;;;18.20;99.90;;;;;;5023065;28;20121;-53
2023/07/28 06:56:45;;;;;;;11.02;6.70;;;18.20;99.90;;;;;;5020510;28;20668;-50
2023/07/28 06:59:14;;;;;;;10.07;7.40;;;18.20;99.90;;;;;;5021854;28;20041;-55
2023/07/28 07:01:46;;;;;;;9.48;6.43;;;18.10;99.90;;;;;;5024037;28;20072;-52
2023/07/28 07:04:14;;;;;;;8.52;6.55;;;18.10;99.90;;;;;;5020397;28;20527;-52
2023/07/28 07:06:41;;;;;;;9.38;6.47;;;18.00;99.90;;;;;;5022361;28;20528;-55
2023/07/28 07:09:09;;;;;;;12.93;6.90;;;18.00;99.90;;;;;;5025748;28;20049;-51
2023/07/28 07:11:36;;;;;;;9.85;5.82;;;17.90;99.90;;;;;;5021474;28;20129;-50
2023/07/28 07:14:04;;;;;;;7.60;5.25;;;17.90;99.90;;;;;;5022810;28;20053;-54
2023/07/28 07:16:35;;;;;;;8.35;5.90;;;18.00;99.90;;;;;;5028904;28;20052;-53
2023/07/28 07:19:03;;;;;;;8.98;5.82;;;18.00;99.90;;;;;;5028941;28;20049;-53
2023/07/28 07:21:31;;;;;;;8.50;5.50;;;17.90;99.90;;;;;;5029110;28;20394;-52
2023/07/28 07:23:59;;;;;;;9.50;6.30;;;18.00;99.90;;;;;;5025741;28;20132;-49
2023/07/28 07:26:26;;;;;;;10.40;6.50;;;18.00;99.90;;;;;;5026713;28;20057;-52
2023/07/28 07:28:54;;;;;;;8.20;6.35;;;18.00;99.90;;;;;;5026181;28;20042;-49
2023/07/28 07:31:21;;;;;;;10.93;7.18;;;18.00;99.90;;;;;;5026133;28;20068;-52
2023/07/28 07:33:49;;;;;;;12.50;6.95;;;18.20;99.90;;;;;;5023843;28;20058;-56
2023/07/28 07:36:17;;;;;;;8.07;5.95;;;18.40;99.90;;;;;;5025726;28;20129;-54
2023/07/28 07:38:46;;;;;;;7.88;5.68;;;18.50;99.90;;;;;;5023720;28;20119;-55
2023/07/28 07:41:19;;;;;;;6.88;5.07;;;18.70;99.90;;;;;;5025560;28;20053;-52
2023/07/28 07:43:48;;;;;;;8.30;5.72;;;18.70;99.90;;;;;;5026800;28;20041;-53
2023/07/28 07:46:16;;;;;;;6.72;4.65;;;18.80;99.90;;;;;;5030939;28;20144;-50
2023/07/28 07:48:44;;;;;;;8.73;5.55;;;18.80;99.90;;;;;;5030037;28;20049;-54
2023/07/28 07:51:11;;;;;;;7.95;5.47;;;18.70;99.90;;;;;;5030511;28;20045;-56
2023/07/28 07:53:39;;;;;;;8.35;5.35;;;18.70;99.90;;;;;;5026372;28;20100;-59
2023/07/28 07:56:08;;;;;;;9.60;5.55;;;19.00;99.90;;;;;;5027497;28;20132;-53
2023/07/28 07:58:35;;;;;;;9.75;5.25;;;19.30;99.90;;;;;;5029797;28;20038;-51
2023/07/28 08:01:03;;;;;;;8.82;5.10;;;19.40;99.90;;;;;;5030955;28;20060;-49
2023/07/28 08:03:31;;;;;;;10.55;5.20;;;19.40;99.90;;;;;;5030203;28;20143;-53
2023/07/28 08:05:59;;;;;;;11.05;5.00;;;19.70;99.90;;;;;;5029888;28;20049;-46
2023/07/28 08:08:27;;;;;;;7.97;5.00;;;19.60;99.90;;;;;;5028418;28;20120;-51
2023/07/28 08:10:55;;;;;;;6.22;4.53;;;19.80;99.90;;;;;;5030194;28;20049;-54
2023/07/28 08:13:22;;;;;;;8.45;4.78;;;20.10;99.90;;;;;;5030214;28;20049;-54
2023/07/28 08:15:50;;;;;;;7.20;4.88;;;20.10;99.90;;;;;;5031578;28;20029;-55
2023/07/28 08:18:17;;;;;;;9.10;4.38;;;20.40;99.90;;;;;;5026155;28;20042;-50
2023/07/28 08:20:45;;;;;;;8.15;4.90;;;20.30;99.90;;;;;;5027335;28;20065;-53
2023/07/28 08:23:12;;;;;;;9.00;4.30;;;20.30;99.90;;;;;;5028189;28;20838;-54
2023/07/28 08:25:40;;;;;;;9.38;4.30;;;20.30;99.90;;;;;;5027489;28;20080;-54
2023/07/28 08:28:07;;;;;;;7.20;4.38;;;20.30;99.90;;;;;;5027923;28;20103;-50
2023/07/28 08:30:34;;;;;;;6.97;4.45;;;20.00;99.90;;;;;;5030613;28;20120;-53
2023/07/28 08:33:03;;;;;;;5.30;3.95;;;19.80;99.90;;;;;;5028914;28;20057;-51
2023/07/28 08:35:30;;;;;;;6.03;3.85;;;19.80;99.90;;;;;;5030228;28;20418;-53
2023/07/28 08:37:58;;;;;;;6.13;3.83;;;19.80;99.90;;;;;;5029497;28;20085;-53
2023/07/28 08:40:27;;;;;;;5.45;3.72;;;19.80;99.90;;;;;;5029538;28;20042;-51
2023/07/28 08:42:55;;;;;;;7.63;3.55;;;20.00;99.90;;;;;;5030671;28;20176;-53
2023/07/28 08:45:23;;;;;;;5.30;3.55;;;20.10;99.90;;;;;;5030166;28;20120;-50
2023/07/28 08:47:51;;;;;;;6.30;3.28;;;20.40;99.90;;;;;;5028423;28;20049;-48
2023/07/28 08:50:18;;;;;;;5.28;3.30;;;20.40;99.90;;;;;;5029554;28;20089;-51
2023/07/28 08:52:45;;;;;;;5.30;3.13;;;20.50;99.90;;;;;;5029842;28;20043;-54
2023/07/28 08:55:13;;;;;;;6.25;3.40;;;20.40;99.90;;;;;;5028155;28;20052;-53
2023/07/28 08:57:40;;;;;;;5.80;3.53;;;20.30;99.90;;;;;;5028922;28;20539;-50
2023/07/28 09:00:13;;;;;;;5.32;3.83;;;20.30;99.90;;;;;;5030675;28;20041;-52
2023/07/28 09:02:41;;;;;;;4.85;3.20;;;20.40;99.90;;;;;;5030033;28;20510;-52
2023/07/28 09:05:20;;;;;;;5.55;3.88;;;20.50;99.90;;;;;;5030404;28;20042;-49
2023/07/28 09:07:47;;;;;;;7.15;3.63;;;20.40;99.90;;;;;;5029262;28;20455;-52
2023/07/28 09:10:15;;;;;;;4.45;3.13;;;20.40;99.90;;;;;;5029416;28;20136;-51
2023/07/28 09:12:50;;;;;;;4.53;3.20;;;20.40;99.90;;;;;;5029378;28;20041;-49
2023/07/28 09:15:18;;;;;;;4.68;2.85;;;20.40;99.90;;;;;;5027214;28;20099;-56
2023/07/28 09:17:46;;;;;;;5.13;3.10;;;20.40;99.90;;;;;;5026750;28;20050;-54
2023/07/28 09:20:15;;;;;;;5.97;3.10;;;20.40;99.90;;;;;;5028173;28;20045;-46
2023/07/28 09:22:43;;;;;;;3.95;2.78;;;20.40;99.90;;;;;;5030044;28;20072;-50
2023/07/28 09:25:15;;;;;;;4.00;2.95;;;20.30;99.90;;;;;;5029356;28;20061;-51
2023/07/28 09:27:53;;;;;;;4.68;2.85;;;20.40;99.90;;;;;;5027816;28;20048;-53
2023/07/28 09:30:21;;;;;;;3.65;2.50;;;20.60;99.90;;;;;;5022489;28;20107;-56
2023/07/28 09:32:52;;;;;;;4.38;2.70;;;20.60;99.90;;;;;;5025808;28;20046;-53
2023/07/28 09:35:21;;;;;;;4.50;2.38;;;20.60;99.90;;;;;;5025335;28;20077;-56
2023/07/28 09:37:52;;;;;;;3.80;2.20;;;20.60;99.90;;;;;;5025538;28;20518;-52
2023/07/28 09:40:21;;;;;;;2.97;1.93;;;20.50;99.90;;;;;;5026888;28;20049;-51
2023/07/28 09:42:50;;;;;;;2.95;1.95;;;20.50;99.90;;;;;;5027004;28;20307;-53
2023/07/28 09:45:22;;;;;;;3.05;2.10;;;20.40;99.90;;;;;;5027524;28;20061;-51
2023/07/28 09:48:09;;;;;;;2.85;1.90;;;20.40;99.90;;;;;;5027698;28;20057;-53
2023/07/28 09:50:38;;;;;;;2.63;1.73;;;20.60;99.90;;;;;;5025920;28;20438;-52
2023/07/28 09:53:09;;;;;;;4.55;1.88;;;20.70;99.90;;;;;;5027971;28;20054;-49
2023/07/28 09:55:39;;;;;;;2.80;1.83;;;20.70;99.90;;;;;;5027169;28;20069;-53
2023/07/28 09:58:09;;;;;;;3.53;1.90;;;20.60;99.90;;;;;;5028128;28;20033;-53
2023/07/28 10:00:38;;;;;;;9.02;2.00;;;20.60;99.90;;;;;;5027541;28;20122;-49
2023/07/28 10:03:06;;;;;;;3.80;2.05;;;20.70;99.90;;;;;;5027557;28;20104;-55
2023/07/28 10:05:34;;;;;;;3.15;1.70;;;20.70;99.90;;;;;;5027736;28;20049;-52
2023/07/28 10:08:03;;;;;;;3.80;2.20;;;20.60;99.90;;;;;;5027121;28;20295;-54
2023/07/28 10:10:31;;;;;;;4.47;2.20;;;20.40;99.90;;;;;;5028542;28;20536;-51
2023/07/28 10:12:59;;;;;;;3.63;2.08;;;20.40;99.90;;;;;;5027625;28;20576;-50
2023/07/28 10:15:32;;;;;;;4.15;1.90;;;20.40;99.90;;;;;;5027967;28;20079;-51
2023/07/28 10:18:00;;;;;;;3.80;1.88;;;20.40;99.90;;;;;;5023436;28;20080;-55
2023/07/28 10:20:39;;;;;;;4.05;1.60;;;20.30;99.90;;;;;;5022624;28;20120;-49
2023/07/28 10:23:07;;;;;;;2.63;1.83;;;20.30;99.90;;;;;;5017588;28;20133;-56
2023/07/28 10:25:36;;;;;;;3.67;2.08;;;20.30;99.90;;;;;;5026864;28;20080;-53
2023/07/28 10:28:05;;;;;;;2.75;1.60;;;20.20;99.90;;;;;;5027512;28;20477;-52
2023/07/28 10:30:52;;;;;;;1.70;1.30;;;20.30;99.90;;;;;;5028426;28;20049;-50
2023/07/28 10:33:36;;;;;;;2.33;1.55;;;20.50;99.90;;;;;;5027532;28;20053;-52
2023/07/28 10:36:23;;;;;;;2.70;1.77;;;20.60;99.90;;;;;;5022378;28;20141;-49
2023/07/28 10:39:16;;;;;;;3.10;1.80;;;20.70;99.90;;;;;;5027576;28;20041;-58
2023/07/28 10:42:08;;;;;;;3.15;1.50;;;20.90;99.90;;;;;;5027843;28;20044;-55
2023/07/28 10:44:37;;;;;;;3.47;1.42;;;21.50;99.90;;;;;;5028069;28;20056;-55
2023/07/28 10:47:09;;;;;;;3.50;1.75;;;21.80;99.90;;;;;;5026212;28;20124;-53
2023/07/28 10:49:36;;;;;;;2.88;2.10;;;21.90;99.90;;;;;;5026237;28;20060;-53
2023/07/28 10:52:04;;;;;;;3.22;2.03;;;21.80;99.90;;;;;;5026577;28;20081;-55
2023/07/28 10:54:32;;;;;;;2.88;1.80;;;22.00;99.90;;;;;;5029747;28;20532;-53
2023/07/28 10:57:03;;;;;;;2.65;1.58;;;22.30;99.90;;;;;;5026197;28;20076;-55
2023/07/28 10:59:32;;;;;;;2.90;1.70;;;22.60;99.90;;;;;;5025596;28;20049;-58
2023/07/28 11:02:00;;;;;;;2.58;1.63;;;22.90;99.90;;;;;;5027257;28;20049;-53
2023/07/28 11:04:28;;;;;;;2.95;1.90;;;23.30;99.90;;;;;;5026653;28;20045;-53
2023/07/28 11:06:55;;;;;;;3.53;1.88;;;23.40;99.90;;;;;;5025178;28;20045;-52
2023/07/28 11:09:23;;;;;;;4.82;2.20;;;23.80;99.90;;;;;;5024124;28;20064;-53
2023/07/28 11:11:51;;;;;;;3.45;2.17;;;23.80;99.90;;;;;;5026160;28;20521;-54
2023/07/28 11:14:20;;;;;;;4.07;2.00;;;23.80;99.90;;;;;;5026395;28;20065;-47
2023/07/28 11:16:47;;;;;;;2.80;2.00;;;23.50;99.90;;;;;;5026399;28;20300;-51
2023/07/28 11:19:19;;;;;;;3.50;2.08;;;23.30;99.90;;;;;;5025865;28;20140;-57
2023/07/28 11:21:51;;;;;;;2.67;1.98;;;23.10;99.90;;;;;;5025638;28;20103;-49
2023/07/28 11:24:20;;;;;;;8.02;2.05;;;23.20;99.90;;;;;;5024240;28;20510;-56
2023/07/28 11:26:49;;;;;;;2.78;2.10;;;23.40;99.90;;;;;;5026203;28;20041;-53
2023/07/28 11:29:18;;;;;;;2.58;1.92;;;23.80;99.90;;;;;;5025185;28;20584;-52
2023/07/28 11:31:48;;;;;;;3.72;2.38;;;23.90;99.90;;;;;;5021183;28;20123;-58
2023/07/28 11:34:16;;;;;;;2.75;2.08;;;23.90;99.90;;;;;;5025787;28;20514;-48
2023/07/28 11:36:44;;;;;;;2.45;2.00;;;23.60;99.90;;;;;;5021852;28;20065;-50
2023/07/28 11:39:12;;;;;;;2.75;2.00;;;23.50;99.90;;;;;;5024790;28;20490;-51
2023/07/28 11:41:40;;;;;;;2.65;1.95;;;23.40;99.90;;;;;;5021046;28;20050;-52
2023/07/28 11:44:08;;;;;;;2.70;1.90;;;23.30;99.90;;;;;;5025133;28;20069;-50
2023/07/28 11:46:43;;;;;;;2.60;2.10;;;23.50;99.90;;;;;;5023138;28;20061;-53
2023/07/28 11:49:22;;;;;;;2.55;2.03;;;23.50;99.90;;;;;;5018527;28;20056;-53
2023/07/28 11:51:55;;;;;;;2.30;1.73;;;23.40;99.90;;;;;;5023609;28;20053;-55
2023/07/28 11:54:24;;;;;;;3.65;2.00;;;23.80;99.90;;;;;;5024184;28;20037;-49
2023/07/28 11:56:55;;;;;;;3.42;2.13;;;24.20;99.90;;;;;;5026074;28;20469;-52
2023/07/28 11:59:22;;;;;;;2.80;2.03;;;24.30;99.90;;;;;;5024236;28;20572;-49
2023/07/28 12:02:04;;;;;;;2.58;1.92;;;24.40;99.90;;;;;;5026678;28;20558;-51
2023/07/28 12:04:42;;;;;;;3.95;2.33;;;24.30;99.90;;;;;;5026128;28;20136;-53
2023/07/28 12:07:16;;;;;;;3.20;2.22;;;24.20;99.90;;;;;;5024408;28;20085;-61
2023/07/28 12:09:48;;;;;;;3.10;2.20;;;24.20;99.90;;;;;;5024088;28;20050;-52
2023/07/28 12:12:18;;;;;;;3.03;2.25;;;24.30;99.90;;;;;;5025776;28;20403;-53
2023/07/28 12:14:51;;;;;;;2.30;2.10;;;24.50;99.90;;;;;;5026097;28;20052;-54
2023/07/28 12:17:39;;;;;;;2.55;2.00;;;24.20;99.90;;;;;;5024924;28;20505;-53
2023/07/28 12:20:10;;;;;;;3.08;2.10;;;24.40;99.90;;;;;;5027443;28;20573;-57
2023/07/28 12:22:40;;;;;;;2.70;2.22;;;24.30;99.90;;;;;;5024021;28;20045;-49
2023/07/28 12:25:07;;;;;;;3.10;2.10;;;24.10;99.90;;;;;;5026073;28;20049;-51
2023/07/28 12:27:35;;;;;;;2.80;2.22;;;24.20;99.90;;;;;;5026008;28;20096;-51
2023/07/28 12:30:04;;;;;;;2.95;2.30;;;24.10;99.90;;;;;;5029363;28;20037;-48
2023/07/28 12:32:31;;;;;;;3.05;2.40;;;24.20;99.90;;;;;;5031174;28;20131;-48
2023/07/28 12:35:01;;;;;;;3.08;2.30;;;24.00;99.90;;;;;;5028943;28;20064;-48
2023/07/28 12:37:32;;;;;;;2.78;2.22;;;24.10;99.90;;;;;;5027273;28;20513;-50
2023/07/28 12:40:03;;;;;;;5.30;2.35;;;24.10;99.90;;;;;;5028175;28;20045;-51
2023/07/28 12:42:32;;;;;;;3.28;2.25;;;23.90;99.90;;;;;;5023995;28;20455;-48
2023/07/28 12:45:02;;;;;;;2.65;2.35;;;23.80;99.90;;;;;;5030595;28;20425;-46
2023/07/28 12:47:33;;;;;;;3.30;2.53;;;23.30;99.90;;;;;;5028176;28;20075;-56
2023/07/28 12:50:06;;;;;;;3.47;2.50;;;23.30;99.90;;;;;;5029673;28;20052;-48
2023/07/28 12:52:45;;;;;;;3.30;2.35;;;23.60;99.90;;;;;;5028643;28;20053;-51
2023/07/28 12:55:16;;;;;;;3.30;2.10;;;23.90;99.90;;;;;;5029518;28;20053;-55
2023/07/28 12:57:48;;;;;;;3.42;2.40;;;24.10;99.90;;;;;;5027176;28;20298;-47